Time;durP1;ratioP1;P1;durP2;ratioP2;P2;SDS_P1;SDS_P2;PMS_P1;PMS_P2;Temp;Humidity;BMP_temperature;BMP_pressure;BME280_temperature;BME280_humidity;BME280_pressure;Samples;Min_cycle;Max_cycle;Signal;HPM_P1;HPM_P2
2022/03/15 00:00:19;;;;;;;31.37;14.73;;;6.00;99.90;;;;;;5073307;28;20194;-73
2022/03/15 00:02:45;;;;;;;36.83;14.63;;;6.20;99.90;;;;;;5073021;28;20202;-73
2022/03/15 00:05:11;;;;;;;32.90;15.03;;;6.00;99.90;;;;;;5072795;28;20183;-72
2022/03/15 00:07:36;;;;;;;30.13;15.43;;;5.90;99.90;;;;;;5072844;28;20221;-72
2022/03/15 00:10:04;;;;;;;35.17;16.23;;;5.90;99.90;;;;;;5073368;28;20176;-72
2022/03/15 00:12:29;;;;;;;40.10;16.70;;;5.90;99.90;;;;;;5074379;28;20313;-72
2022/03/15 00:14:55;;;;;;;35.47;16.70;;;5.80;99.90;;;;;;5073726;28;20196;-72
2022/03/15 00:17:22;;;;;;;33.37;14.57;;;5.90;99.90;;;;;;5073601;28;20535;-72
2022/03/15 00:19:48;;;;;;;32.87;14.40;;;6.00;99.90;;;;;;5073224;28;20202;-72
2022/03/15 00:22:14;;;;;;;29.53;13.07;;;6.00;99.90;;;;;;5072952;28;20662;-72
2022/03/15 00:24:43;;;;;;;35.67;15.97;;;6.00;99.90;;;;;;5072969;28;20184;-72
2022/03/15 00:27:13;;;;;;;31.70;14.13;;;5.90;99.90;;;;;;5072912;28;20250;-72
2022/03/15 00:29:39;;;;;;;37.30;14.17;;;6.00;99.90;;;;;;5072982;28;20195;-72
2022/03/15 00:32:07;;;;;;;33.70;14.63;;;6.00;99.90;;;;;;5072777;28;20179;-72
2022/03/15 00:34:33;;;;;;;32.87;15.30;;;6.00;99.90;;;;;;5072829;28;20181;-72
2022/03/15 00:36:59;;;;;;;33.83;15.03;;;6.00;99.90;;;;;;5072830;28;20178;-72
2022/03/15 00:39:24;;;;;;;35.90;16.00;;;5.80;99.90;;;;;;5072763;28;20598;-72
2022/03/15 00:41:50;;;;;;;32.03;15.93;;;5.70;99.90;;;;;;5071930;28;20174;-72
2022/03/15 00:44:16;;;;;;;41.53;16.47;;;5.80;99.90;;;;;;5073015;28;20177;-72
2022/03/15 00:46:42;;;;;;;45.97;17.43;;;5.80;99.90;;;;;;5072614;28;20777;-72
2022/03/15 00:49:07;;;;;;;34.20;16.47;;;5.90;99.90;;;;;;5072570;28;20244;-72
2022/03/15 00:51:34;;;;;;;43.53;16.37;;;5.90;99.90;;;;;;5072272;28;20170;-72
2022/03/15 00:54:00;;;;;;;38.03;15.63;;;5.90;99.90;;;;;;5072470;28;20174;-72
2022/03/15 00:56:26;;;;;;;32.63;16.13;;;5.90;99.90;;;;;;5072494;28;20185;-72
2022/03/15 00:58:52;;;;;;;34.37;15.83;;;6.00;99.90;;;;;;5072263;28;20202;-72
2022/03/15 01:01:18;;;;;;;33.63;16.57;;;6.00;99.90;;;;;;5072300;28;20549;-72
2022/03/15 01:03:43;;;;;;;35.13;15.17;;;5.90;99.90;;;;;;5071670;28;20183;-72
2022/03/15 01:06:09;;;;;;;40.90;16.30;;;5.80;99.90;;;;;;5072158;28;20180;-72
2022/03/15 01:08:35;;;;;;;36.50;16.50;;;5.90;99.90;;;;;;5073356;28;20250;-72
2022/03/15 01:11:03;;;;;;;32.37;14.97;;;5.80;99.90;;;;;;5072084;28;20232;-72
2022/03/15 01:13:28;;;;;;;32.40;15.70;;;5.80;99.90;;;;;;5072105;28;20169;-72
2022/03/15 01:15:54;;;;;;;35.83;16.00;;;5.80;99.90;;;;;;5072110;28;20236;-72
2022/03/15 01:18:20;;;;;;;31.93;15.03;;;5.80;99.90;;;;;;5072260;28;20201;-72
2022/03/15 01:20:46;;;;;;;37.87;15.43;;;5.70;99.90;;;;;;5071936;28;20189;-72
2022/03/15 01:23:12;;;;;;;32.83;14.83;;;5.80;99.90;;;;;;5071697;28;20173;-72
2022/03/15 01:25:39;;;;;;;42.53;16.00;;;5.80;99.90;;;;;;5071778;28;20192;-72
2022/03/15 01:28:05;;;;;;;34.17;15.80;;;5.80;99.90;;;;;;5071774;28;20246;-72
2022/03/15 01:30:31;;;;;;;38.30;15.77;;;5.80;99.90;;;;;;5071822;28;20185;-70
2022/03/15 01:32:57;;;;;;;34.60;15.27;;;5.70;99.90;;;;;;5071665;28;20178;-70
2022/03/15 01:35:23;;;;;;;37.20;15.80;;;5.60;99.90;;;;;;5071581;28;20177;-70
2022/03/15 01:37:49;;;;;;;30.80;14.40;;;5.60;99.90;;;;;;5071611;28;20233;-70
2022/03/15 01:40:15;;;;;;;34.60;15.27;;;5.60;99.90;;;;;;5071586;28;20654;-70
2022/03/15 01:42:41;;;;;;;37.67;14.57;;;5.60;99.90;;;;;;5071311;28;20181;-70
2022/03/15 01:45:08;;;;;;;31.40;14.33;;;5.60;99.90;;;;;;5071455;28;20184;-70
2022/03/15 01:47:34;;;;;;;33.60;15.57;;;5.60;99.90;;;;;;5071302;28;20203;-70
2022/03/15 01:50:02;;;;;;;35.53;14.53;;;5.50;99.90;;;;;;5055068;28;20289;-70
2022/03/15 01:52:27;;;;;;;32.07;14.30;;;5.50;99.90;;;;;;5071177;28;20175;-70
2022/03/15 01:54:53;;;;;;;34.63;15.60;;;5.50;99.90;;;;;;5070326;28;20223;-70
2022/03/15 01:57:19;;;;;;;40.87;15.60;;;5.50;99.90;;;;;;5071188;28;20660;-70
2022/03/15 01:59:45;;;;;;;31.43;14.60;;;5.50;99.90;;;;;;5071015;28;20209;-70
2022/03/15 02:02:11;;;;;;;40.53;16.80;;;5.60;99.90;;;;;;5070789;28;20528;-70
2022/03/15 02:04:37;;;;;;;33.80;15.40;;;5.50;99.90;;;;;;5070725;28;20264;-70
2022/03/15 02:07:09;;;;;;;37.97;16.50;;;5.50;99.90;;;;;;5070864;28;20207;-71
2022/03/15 02:09:35;;;;;;;35.23;16.30;;;5.50;99.90;;;;;;5070933;28;20235;-71
2022/03/15 02:12:01;;;;;;;36.47;15.33;;;5.50;99.90;;;;;;5070788;28;20205;-71
2022/03/15 02:14:27;;;;;;;41.53;16.80;;;5.40;99.90;;;;;;5070881;28;20170;-71
2022/03/15 02:16:54;;;;;;;34.00;16.87;;;5.20;99.90;;;;;;5070979;28;20551;-71
2022/03/15 02:19:20;;;;;;;35.87;16.50;;;5.10;99.90;;;;;;5070817;28;20588;-71
2022/03/15 02:21:46;;;;;;;30.93;15.07;;;5.10;99.90;;;;;;5070574;28;20709;-71
2022/03/15 02:24:12;;;;;;;34.90;15.87;;;5.20;99.90;;;;;;5072162;28;20291;-71
2022/03/15 02:26:38;;;;;;;42.20;15.97;;;5.10;99.90;;;;;;5070842;28;20285;-71
2022/03/15 02:29:03;;;;;;;35.70;16.03;;;5.10;99.90;;;;;;5070699;28;20192;-72
2022/03/15 02:31:29;;;;;;;31.50;14.47;;;5.20;99.90;;;;;;5070577;28;20179;-71
2022/03/15 02:33:55;;;;;;;35.43;15.67;;;5.20;99.90;;;;;;5070640;28;20714;-71
2022/03/15 02:36:21;;;;;;;44.30;16.27;;;5.20;99.90;;;;;;5070642;28;20306;-71
2022/03/15 02:38:47;;;;;;;36.83;16.07;;;5.20;99.90;;;;;;5070614;28;20285;-71
2022/03/15 02:41:14;;;;;;;34.83;16.33;;;5.20;99.90;;;;;;5070565;28;20259;-71
2022/03/15 02:43:40;;;;;;;32.10;15.67;;;5.20;99.90;;;;;;5070547;28;20633;-71
2022/03/15 02:46:07;;;;;;;33.77;15.10;;;5.10;99.90;;;;;;5070544;28;20257;-71
2022/03/15 02:48:34;;;;;;;31.07;15.30;;;5.10;99.90;;;;;;5070467;28;20245;-71
2022/03/15 02:51:04;;;;;;;32.60;15.07;;;5.10;99.90;;;;;;5070387;28;20173;-71
2022/03/15 02:53:30;;;;;;;38.97;16.20;;;5.10;99.90;;;;;;5070479;28;20230;-71
2022/03/15 02:55:55;;;;;;;37.93;15.73;;;5.10;99.90;;;;;;5070519;28;20178;-71
2022/03/15 02:58:21;;;;;;;30.63;14.43;;;5.10;99.90;;;;;;5070428;28;20235;-71
2022/03/15 03:00:47;;;;;;;31.47;14.80;;;5.10;99.90;;;;;;5064032;22;20226;-80
2022/03/15 03:03:13;;;;;;;32.33;14.63;;;5.10;99.90;;;;;;5051492;28;20249;-81
2022/03/15 03:05:41;;;;;;;30.03;15.00;;;5.00;99.90;;;;;;5051870;28;20171;-80
2022/03/15 03:08:06;;;;;;;29.50;14.30;;;5.00;99.90;;;;;;5055148;28;20209;-81
2022/03/15 03:10:33;;;;;;;31.50;15.03;;;5.10;99.90;;;;;;5056635;28;20178;-81
2022/03/15 03:12:59;;;;;;;32.13;13.77;;;5.10;99.90;;;;;;5067786;23;20264;-70
2022/03/15 03:15:24;;;;;;;30.63;15.27;;;5.10;99.90;;;;;;5074388;28;20633;-70
2022/03/15 03:17:50;;;;;;;32.63;14.33;;;5.10;99.90;;;;;;5074247;28;20179;-70
2022/03/15 03:20:21;;;;;;;31.47;14.93;;;5.20;99.90;;;;;;5074292;28;20174;-70
2022/03/15 03:22:48;;;;;;;27.17;13.70;;;5.20;99.90;;;;;;5073781;28;20175;-70
2022/03/15 03:25:14;;;;;;;39.13;15.40;;;5.10;99.90;;;;;;5075475;28;20169;-70
2022/03/15 03:27:40;;;;;;;27.67;13.73;;;5.20;99.90;;;;;;5073944;28;20202;-70
2022/03/15 03:30:07;;;;;;;28.00;14.20;;;5.10;99.90;;;;;;5074124;28;20323;-70
2022/03/15 03:32:33;;;;;;;30.23;13.60;;;5.10;99.90;;;;;;5073774;28;20184;-71
2022/03/15 03:34:58;;;;;;;29.43;14.03;;;5.20;99.90;;;;;;5075299;28;20169;-70
2022/03/15 03:37:25;;;;;;;35.90;15.13;;;5.20;99.90;;;;;;5073942;28;20172;-70
2022/03/15 03:39:53;;;;;;;27.50;14.53;;;5.10;99.90;;;;;;5073827;28;20290;-70
2022/03/15 03:42:19;;;;;;;30.37;15.37;;;5.10;99.90;;;;;;5073794;28;20181;-70
2022/03/15 03:44:45;;;;;;;30.73;14.73;;;5.00;99.90;;;;;;5073757;28;20179;-70
2022/03/15 03:47:11;;;;;;;29.17;13.70;;;5.10;99.90;;;;;;5073636;28;20196;-70
2022/03/15 03:49:37;;;;;;;29.87;13.90;;;5.10;99.90;;;;;;5073688;28;20188;-70
2022/03/15 03:52:05;;;;;;;32.07;15.30;;;5.20;99.90;;;;;;5073534;28;20186;-70
2022/03/15 03:54:32;;;;;;;30.87;15.20;;;5.10;99.90;;;;;;5073599;28;20537;-71
2022/03/15 03:56:57;;;;;;;32.40;14.67;;;5.00;99.90;;;;;;5073541;28;20177;-70
2022/03/15 03:59:23;;;;;;;30.60;15.27;;;5.00;99.90;;;;;;5073534;28;20675;-70
2022/03/15 04:01:49;;;;;;;33.97;14.50;;;5.00;99.90;;;;;;5073261;28;20216;-70
2022/03/15 04:04:15;;;;;;;33.07;15.00;;;4.90;99.90;;;;;;5072464;28;20218;-70
2022/03/15 04:06:41;;;;;;;28.20;14.13;;;4.90;99.90;;;;;;5073466;28;20240;-72
2022/03/15 04:09:09;;;;;;;28.40;13.27;;;5.00;99.90;;;;;;5073352;28;20202;-72
2022/03/15 04:11:36;;;;;;;27.87;14.60;;;4.90;99.90;;;;;;5073273;28;20219;-72
2022/03/15 04:14:03;;;;;;;30.03;14.33;;;5.00;99.90;;;;;;5074462;28;20185;-71
2022/03/15 04:16:30;;;;;;;33.23;15.27;;;4.90;99.90;;;;;;5072541;28;20170;-70
2022/03/15 04:18:56;;;;;;;29.60;14.87;;;4.90;99.90;;;;;;5072769;28;20194;-70
2022/03/15 04:21:24;;;;;;;36.73;15.80;;;5.00;99.90;;;;;;5073062;28;20175;-70
2022/03/15 04:23:55;;;;;;;26.90;14.73;;;4.90;99.90;;;;;;5072898;28;20170;-70
2022/03/15 04:26:25;;;;;;;33.17;15.33;;;5.00;99.90;;;;;;5073184;28;20171;-70
2022/03/15 04:28:51;;;;;;;37.60;16.13;;;4.90;99.90;;;;;;5072909;28;20194;-70
2022/03/15 04:31:18;;;;;;;33.87;16.67;;;5.00;99.90;;;;;;5072778;28;20231;-70
2022/03/15 04:33:44;;;;;;;37.43;15.57;;;4.90;99.90;;;;;;5072971;28;20165;-70
2022/03/15 04:36:10;;;;;;;41.37;16.50;;;4.90;99.90;;;;;;5072863;28;20273;-70
2022/03/15 04:38:36;;;;;;;34.33;17.50;;;4.90;99.90;;;;;;5072858;28;20246;-70
2022/03/15 04:41:02;;;;;;;33.17;15.43;;;4.90;99.90;;;;;;5072746;28;20260;-71
2022/03/15 04:43:28;;;;;;;34.83;15.80;;;4.90;99.90;;;;;;5072693;28;20173;-70
2022/03/15 04:45:53;;;;;;;34.20;15.13;;;4.90;99.90;;;;;;5072605;28;20664;-70
2022/03/15 04:48:20;;;;;;;37.23;16.17;;;5.10;99.90;;;;;;5072543;28;20200;-70
2022/03/15 04:50:47;;;;;;;40.67;16.10;;;5.00;99.90;;;;;;5072623;28;20212;-70
2022/03/15 04:53:12;;;;;;;37.27;15.47;;;5.00;99.90;;;;;;5072583;28;20181;-70
2022/03/15 04:55:39;;;;;;;40.47;16.10;;;5.10;99.90;;;;;;5072598;28;20169;-70
2022/03/15 04:58:04;;;;;;;34.90;16.53;;;5.10;99.90;;;;;;5072315;28;20246;-70
2022/03/15 05:00:30;;;;;;;41.53;17.00;;;5.10;99.90;;;;;;5072502;28;20173;-70
2022/03/15 05:02:56;;;;;;;37.97;16.23;;;5.10;99.90;;;;;;5071637;28;20227;-70
2022/03/15 05:05:21;;;;;;;34.80;16.13;;;5.20;99.90;;;;;;5072111;28;20196;-70
2022/03/15 05:07:48;;;;;;;38.07;16.63;;;5.10;99.90;;;;;;5072144;28;20201;-70
2022/03/15 05:12:58;;;;;;;40.53;17.20;;;5.00;99.90;;;;;;5073484;28;20304;-70
2022/03/15 05:15:24;;;;;;;38.73;16.53;;;5.00;99.90;;;;;;5073386;28;20592;-70
2022/03/15 05:17:50;;;;;;;32.93;15.90;;;5.00;99.90;;;;;;5073324;28;20673;-70
2022/03/15 05:20:17;;;;;;;32.07;15.13;;;5.00;99.90;;;;;;5072117;28;20620;-70
2022/03/15 05:22:44;;;;;;;39.87;16.43;;;5.00;99.90;;;;;;5071623;28;20189;-70
2022/03/15 05:25:11;;;;;;;37.13;16.27;;;5.00;99.90;;;;;;5071832;28;20177;-70
2022/03/15 05:27:37;;;;;;;32.43;16.00;;;4.90;99.90;;;;;;5071786;28;20204;-70
2022/03/15 05:30:04;;;;;;;33.47;16.43;;;5.00;99.90;;;;;;5071735;28;20181;-70
2022/03/15 05:32:30;;;;;;;38.27;16.77;;;5.10;99.90;;;;;;5071549;28;20255;-70
2022/03/15 05:34:56;;;;;;;33.60;16.57;;;5.10;99.90;;;;;;5071697;28;20178;-70
2022/03/15 05:37:22;;;;;;;42.60;18.20;;;5.10;99.90;;;;;;5071783;28;20185;-70
2022/03/15 05:39:48;;;;;;;42.93;17.53;;;5.00;99.90;;;;;;5071448;28;20281;-70
2022/03/15 05:42:14;;;;;;;37.27;16.80;;;5.10;99.90;;;;;;5071426;28;20514;-70
2022/03/15 05:44:40;;;;;;;38.93;17.67;;;5.10;99.90;;;;;;5071569;28;20177;-70
2022/03/15 05:47:06;;;;;;;39.23;17.17;;;5.20;99.90;;;;;;5071409;28;20267;-70
2022/03/15 05:49:32;;;;;;;39.70;17.47;;;5.20;99.90;;;;;;5072717;28;20582;-70
2022/03/15 05:51:58;;;;;;;46.63;17.37;;;5.20;99.90;;;;;;5071217;28;20169;-70
2022/03/15 05:54:24;;;;;;;36.30;18.30;;;5.20;99.90;;;;;;5071179;28;20169;-70
2022/03/15 05:56:50;;;;;;;40.37;17.97;;;5.10;99.90;;;;;;5071344;28;20204;-70
2022/03/15 05:59:16;;;;;;;37.67;17.50;;;5.10;99.90;;;;;;5071211;28;20271;-71
2022/03/15 06:01:42;;;;;;;43.00;17.50;;;5.10;99.90;;;;;;5071160;28;20179;-70
2022/03/15 06:04:09;;;;;;;45.80;18.63;;;5.10;99.90;;;;;;5070377;28;20172;-71
2022/03/15 06:06:34;;;;;;;40.90;17.30;;;5.10;99.90;;;;;;5071046;28;20176;-70
2022/03/15 06:09:00;;;;;;;47.53;18.13;;;5.10;99.90;;;;;;5070875;28;20602;-70
2022/03/15 06:11:26;;;;;;;38.37;17.77;;;5.20;99.90;;;;;;5070925;28;20643;-70
2022/03/15 06:13:52;;;;;;;44.53;18.57;;;5.20;99.90;;;;;;5070800;28;20192;-70
2022/03/15 06:16:18;;;;;;;40.43;16.33;;;5.20;99.90;;;;;;5071148;28;20166;-72
2022/03/15 06:18:44;;;;;;;42.20;18.47;;;5.20;99.90;;;;;;5070882;28;20686;-72
2022/03/15 06:21:09;;;;;;;42.70;18.43;;;5.20;99.90;;;;;;5070808;28;20175;-72
2022/03/15 06:23:36;;;;;;;38.83;18.20;;;5.30;99.90;;;;;;5070787;28;20712;-72
2022/03/15 06:26:02;;;;;;;40.43;17.27;;;5.30;99.90;;;;;;5070787;28;20175;-72
2022/03/15 06:28:27;;;;;;;41.93;18.10;;;5.30;99.90;;;;;;5070673;28;20202;-73
2022/03/15 06:30:53;;;;;;;33.03;17.03;;;5.30;99.90;;;;;;5070808;28;20169;-72
2022/03/15 06:33:19;;;;;;;38.03;16.93;;;5.30;99.90;;;;;;5070573;28;20170;-72
2022/03/15 06:35:46;;;;;;;35.33;16.07;;;5.30;99.90;;;;;;5070742;28;20174;-72
2022/03/15 06:38:12;;;;;;;36.20;16.20;;;5.30;99.90;;;;;;5070649;28;20207;-72
2022/03/15 06:40:38;;;;;;;34.90;14.87;;;5.30;99.90;;;;;;5070263;28;20177;-72
2022/03/15 06:43:05;;;;;;;33.83;15.47;;;5.40;99.90;;;;;;5070479;28;20308;-72
2022/03/15 06:45:32;;;;;;;42.90;17.30;;;5.40;99.90;;;;;;5070676;28;20170;-72
2022/03/15 06:47:58;;;;;;;42.53;17.23;;;5.50;99.90;;;;;;5070462;28;20835;-72
2022/03/15 06:50:23;;;;;;;37.13;16.77;;;5.50;99.90;;;;;;5070624;28;20182;-72
2022/03/15 06:52:49;;;;;;;36.13;16.40;;;5.50;99.90;;;;;;5070311;28;20626;-72
2022/03/15 06:55:16;;;;;;;41.53;16.43;;;5.50;99.90;;;;;;5070618;28;20170;-72
2022/03/15 06:57:42;;;;;;;35.83;15.70;;;5.50;99.90;;;;;;5070498;28;20562;-72
2022/03/15 07:00:11;;;;;;;36.47;15.47;;;5.50;99.90;;;;;;5070525;28;20264;-73
2022/03/15 07:02:36;;;;;;;32.13;15.40;;;5.50;99.90;;;;;;5069979;28;20220;-73
2022/03/15 07:05:04;;;;;;;36.87;15.97;;;5.60;99.90;;;;;;5069706;28;20205;-72
2022/03/15 07:07:30;;;;;;;37.97;16.60;;;5.60;99.90;;;;;;5070640;28;20202;-72
2022/03/15 07:09:56;;;;;;;34.13;16.50;;;5.60;99.90;;;;;;5070692;28;20286;-73
2022/03/15 07:12:24;;;;;;;36.50;15.13;;;5.60;99.90;;;;;;5070306;28;20182;-73
2022/03/15 07:14:50;;;;;;;34.67;15.40;;;5.60;99.90;;;;;;5070341;28;20179;-73
2022/03/15 07:17:16;;;;;;;30.43;14.63;;;5.60;99.90;;;;;;5070611;28;20171;-75
2022/03/15 07:19:42;;;;;;;33.10;15.90;;;5.70;99.90;;;;;;5070292;28;20274;-74
2022/03/15 07:22:08;;;;;;;30.80;15.20;;;5.60;99.90;;;;;;5070402;28;20193;-74
2022/03/15 07:24:35;;;;;;;36.37;15.93;;;5.70;99.90;;;;;;5070329;28;20184;-75
2022/03/15 07:27:01;;;;;;;32.80;14.27;;;5.80;99.90;;;;;;5070406;28;20204;-74
2022/03/15 07:29:27;;;;;;;29.97;15.20;;;5.90;99.90;;;;;;5070334;28;20222;-73
2022/03/15 07:31:54;;;;;;;30.67;15.03;;;5.80;99.90;;;;;;5070132;28;20187;-74
2022/03/15 07:34:20;;;;;;;33.33;14.60;;;5.80;99.90;;;;;;5070188;28;20170;-74
2022/03/15 07:36:45;;;;;;;41.40;15.73;;;5.90;99.90;;;;;;5070377;28;20182;-73
2022/03/15 07:39:11;;;;;;;35.23;15.90;;;6.00;99.90;;;;;;5070068;28;20732;-74
2022/03/15 07:41:40;;;;;;;28.57;14.27;;;6.10;99.90;;;;;;5070067;28;20204;-75
2022/03/15 07:44:10;;;;;;;39.90;16.13;;;6.00;99.90;;;;;;5070162;28;20578;-75
2022/03/15 07:46:37;;;;;;;32.10;14.60;;;6.10;99.90;;;;;;5070162;28;20186;-73
2022/03/15 07:49:03;;;;;;;30.43;14.87;;;6.20;99.90;;;;;;5069973;28;20596;-73
2022/03/15 07:51:30;;;;;;;30.23;14.57;;;6.10;99.90;;;;;;5070050;28;20261;-73
2022/03/15 07:53:55;;;;;;;35.47;14.77;;;6.20;99.90;;;;;;5073565;28;20571;-74
2022/03/15 07:56:22;;;;;;;27.50;14.07;;;6.20;99.90;;;;;;5073917;28;20179;-73
2022/03/15 07:58:47;;;;;;;36.67;14.63;;;6.20;99.90;;;;;;5073337;28;20222;-73
2022/03/15 08:01:13;;;;;;;29.27;14.30;;;6.20;99.90;;;;;;5073660;28;20268;-74
2022/03/15 08:03:39;;;;;;;29.43;13.27;;;6.20;99.90;;;;;;5072748;28;20312;-74
2022/03/15 08:06:04;;;;;;;26.70;12.07;;;6.30;99.90;;;;;;5073576;28;20523;-74
2022/03/15 08:08:30;;;;;;;27.00;12.63;;;6.30;99.90;;;;;;5073818;28;20207;-74
2022/03/15 08:10:56;;;;;;;30.10;12.97;;;6.30;99.90;;;;;;5073737;28;20169;-73
2022/03/15 08:13:21;;;;;;;27.77;12.13;;;6.40;99.90;;;;;;5073304;28;20194;-73
2022/03/15 08:15:47;;;;;;;30.90;13.57;;;6.40;99.90;;;;;;5073328;28;20194;-73
2022/03/15 08:18:13;;;;;;;33.97;13.13;;;6.50;99.90;;;;;;5073248;28;20207;-74
2022/03/15 08:20:40;;;;;;;27.20;12.87;;;6.60;99.90;;;;;;5073090;28;20180;-74
2022/03/15 08:23:07;;;;;;;35.87;13.10;;;6.60;99.90;;;;;;5072891;28;20186;-75
2022/03/15 08:25:33;;;;;;;33.07;13.00;;;6.70;99.90;;;;;;5073005;28;20179;-77
2022/03/15 08:28:00;;;;;;;26.53;12.63;;;6.70;99.90;;;;;;5073101;28;20212;-77
2022/03/15 08:30:29;;;;;;;29.37;12.70;;;6.60;99.90;;;;;;5073319;28;20176;-76
2022/03/15 08:32:55;;;;;;;25.20;12.17;;;6.70;99.90;;;;;;5073038;28;20179;-77
2022/03/15 08:35:22;;;;;;;33.63;13.20;;;6.80;99.90;;;;;;5073051;28;20165;-77
2022/03/15 08:37:50;;;;;;;23.97;12.63;;;6.90;99.90;;;;;;5071887;28;20179;-74
2022/03/15 08:40:20;;;;;;;30.50;12.90;;;6.90;99.90;;;;;;5073196;28;20176;-74
2022/03/15 08:42:46;;;;;;;21.90;11.17;;;6.90;99.90;;;;;;5072925;28;20631;-74
2022/03/15 08:45:12;;;;;;;35.27;13.67;;;6.90;99.90;;;;;;5072955;28;20180;-75
2022/03/15 08:47:38;;;;;;;32.57;14.23;;;7.00;99.90;;;;;;5072822;28;20207;-75
2022/03/15 08:50:06;;;;;;;56.47;15.40;;;6.90;99.90;;;;;;5072470;28;20193;-74
2022/03/15 08:52:32;;;;;;;55.50;13.63;;;7.00;99.90;;;;;;5072794;28;20177;-74
2022/03/15 08:54:58;;;;;;;29.60;13.90;;;7.10;99.90;;;;;;5072783;28;20173;-75
2022/03/15 08:57:23;;;;;;;26.90;11.90;;;7.10;99.90;;;;;;5072806;28;20179;-76
2022/03/15 08:59:49;;;;;;;27.97;11.70;;;7.10;99.90;;;;;;5072696;28;20250;-75
2022/03/15 09:02:17;;;;;;;29.27;12.13;;;7.10;99.90;;;;;;5072157;28;20199;-74
2022/03/15 09:04:43;;;;;;;26.63;11.90;;;7.20;99.90;;;;;;5071512;28;20593;-76
2022/03/15 09:07:09;;;;;;;30.83;13.60;;;7.20;99.90;;;;;;5072527;28;20208;-77
2022/03/15 09:09:35;;;;;;;38.97;12.20;;;7.20;99.90;;;;;;5073692;28;20275;-77
2022/03/15 09:12:02;;;;;;;29.87;12.50;;;7.30;99.90;;;;;;5072299;28;20192;-77
2022/03/15 09:14:28;;;;;;;33.30;13.00;;;7.30;99.90;;;;;;5072305;28;20283;-77
2022/03/15 09:16:53;;;;;;;28.60;12.20;;;7.40;99.90;;;;;;5072547;28;20482;-77
2022/03/15 09:19:19;;;;;;;26.97;11.37;;;7.30;99.90;;;;;;5072286;28;20675;-77
2022/03/15 09:21:45;;;;;;;24.27;11.57;;;7.30;99.90;;;;;;5072244;28;20207;-77
2022/03/15 09:24:11;;;;;;;29.17;12.60;;;7.40;99.90;;;;;;5072380;28;20546;-76
2022/03/15 09:26:37;;;;;;;30.70;13.53;;;7.50;99.90;;;;;;5071984;28;20176;-77
2022/03/15 09:29:03;;;;;;;25.30;11.63;;;7.50;99.90;;;;;;5071932;28;20610;-77
2022/03/15 09:31:29;;;;;;;29.33;11.97;;;7.50;99.90;;;;;;5071895;28;20332;-77
2022/03/15 09:33:54;;;;;;;29.27;12.07;;;7.60;99.90;;;;;;5072151;28;20171;-77
2022/03/15 09:36:20;;;;;;;25.33;12.10;;;7.70;99.90;;;;;;5071975;28;20259;-77
2022/03/15 09:38:46;;;;;;;28.10;12.43;;;7.70;99.90;;;;;;5071883;28;20238;-77
2022/03/15 09:41:16;;;;;;;25.90;12.20;;;7.80;99.90;;;;;;5071744;28;20180;-77
2022/03/15 09:43:45;;;;;;;21.70;12.03;;;7.80;99.90;;;;;;5071870;28;20164;-77
2022/03/15 09:46:12;;;;;;;25.07;12.33;;;7.90;99.90;;;;;;5071773;28;20177;-77
2022/03/15 09:48:40;;;;;;;33.83;11.57;;;8.00;99.90;;;;;;5071113;28;20577;-77
2022/03/15 09:51:06;;;;;;;29.60;12.13;;;8.00;99.90;;;;;;5071883;28;20651;-77
2022/03/15 09:53:37;;;;;;;23.47;11.27;;;8.00;99.90;;;;;;5071671;28;20682;-77
2022/03/15 09:56:03;;;;;;;30.20;11.30;;;8.10;99.90;;;;;;5072923;28;20530;-77
2022/03/15 09:58:29;;;;;;;35.63;12.60;;;8.10;99.90;;;;;;5071548;28;20196;-77
2022/03/15 10:00:57;;;;;;;34.80;14.70;;;8.30;99.90;;;;;;5071546;28;20240;-77
2022/03/15 10:03:23;;;;;;;30.77;13.53;;;8.40;99.90;;;;;;5070864;28;20168;-76
2022/03/15 10:05:50;;;;;;;27.73;12.27;;;8.40;99.90;;;;;;5071079;28;20181;-78
2022/03/15 10:08:17;;;;;;;25.90;12.40;;;8.40;99.90;;;;;;5071265;28;20204;-76
2022/03/15 10:10:48;;;;;;;28.30;12.37;;;8.50;99.90;;;;;;5071255;28;20234;-77
2022/03/15 10:13:14;;;;;;;23.70;11.70;;;8.60;99.90;;;;;;5071162;28;20190;-76
2022/03/15 10:15:56;;;;;;;26.40;12.17;;;8.70;99.90;;;;;;5070627;28;20173;-76
2022/03/15 10:18:22;;;;;;;22.97;11.03;;;8.90;99.90;;;;;;5071360;28;20669;-77
2022/03/15 10:20:48;;;;;;;26.83;10.87;;;8.90;99.90;;;;;;5071347;28;20180;-77
2022/03/15 10:23:16;;;;;;;28.70;11.73;;;8.80;99.90;;;;;;5070913;28;20710;-77
2022/03/15 10:25:46;;;;;;;28.97;12.23;;;9.10;99.90;;;;;;5071162;28;20182;-77
2022/03/15 10:28:13;;;;;;;28.30;10.70;;;9.20;99.90;;;;;;5071156;28;20567;-77
2022/03/15 10:30:41;;;;;;;26.03;12.20;;;9.10;99.90;;;;;;5071235;28;20221;-77
2022/03/15 10:33:07;;;;;;;26.63;11.20;;;9.20;99.90;;;;;;5070907;28;20642;-76
2022/03/15 10:35:39;;;;;;;26.37;11.17;;;9.30;99.90;;;;;;5070917;28;20173;-77
2022/03/15 10:38:07;;;;;;;23.90;10.73;;;9.30;99.90;;;;;;5071192;28;20201;-75
2022/03/15 10:40:44;;;;;;;24.07;12.13;;;9.30;99.90;;;;;;5071269;28;20201;-75
2022/03/15 10:43:14;;;;;;;22.70;11.43;;;9.40;99.90;;;;;;5070905;28;20168;-77
2022/03/15 10:45:46;;;;;;;18.73;10.20;;;9.40;99.90;;;;;;5070950;28;20279;-77
2022/03/15 10:48:20;;;;;;;30.30;11.33;;;9.50;99.90;;;;;;5070740;28;20209;-77
2022/03/15 10:51:09;;;;;;;22.90;10.73;;;9.60;99.90;;;;;;5070496;28;20170;-77
2022/03/15 10:53:39;;;;;;;23.53;10.63;;;9.70;99.90;;;;;;5070955;28;20210;-76
2022/03/15 10:56:24;;;;;;;25.93;11.20;;;9.70;99.90;;;;;;5070807;28;20194;-76
2022/03/15 10:58:54;;;;;;;26.00;11.07;;;10.00;99.90;;;;;;5071089;28;20687;-77
2022/03/15 11:01:21;;;;;;;24.30;10.70;;;10.00;99.90;;;;;;5070642;28;20648;-77
2022/03/15 11:03:53;;;;;;;17.50;9.97;;;10.10;99.90;;;;;;5069696;28;20170;-77
2022/03/15 11:06:37;;;;;;;19.70;9.43;;;10.20;99.90;;;;;;5070690;28;20175;-77
2022/03/15 11:09:16;;;;;;;21.23;9.37;;;10.00;99.90;;;;;;5070481;28;20210;-77
2022/03/15 11:11:42;;;;;;;18.30;8.90;;;10.20;99.90;;;;;;5070482;28;20173;-77
2022/03/15 11:14:10;;;;;;;24.37;10.00;;;10.40;99.90;;;;;;5070528;28;20184;-77
2022/03/15 11:16:37;;;;;;;16.40;8.97;;;10.60;99.90;;;;;;5070788;28;20267;-77
2022/03/15 11:19:05;;;;;;;21.70;9.00;;;10.50;99.90;;;;;;5070555;28;20200;-77
2022/03/15 11:21:34;;;;;;;18.50;9.10;;;10.70;99.90;;;;;;5070371;28;20265;-76
2022/03/15 11:24:02;;;;;;;19.10;8.83;;;10.70;99.90;;;;;;5070595;28;20219;-76
2022/03/15 11:26:33;;;;;;;18.97;9.30;;;10.90;99.90;;;;;;5071664;28;20195;-77
2022/03/15 11:29:02;;;;;;;16.53;8.63;;;10.90;99.90;;;;;;5074277;28;20210;-76
2022/03/15 11:31:30;;;;;;;23.27;9.37;;;11.00;99.90;;;;;;5074142;28;20175;-77
2022/03/15 11:33:58;;;;;;;16.70;8.07;;;11.00;99.90;;;;;;5074161;28;20181;-77
2022/03/15 11:36:25;;;;;;;17.80;8.07;;;11.00;99.90;;;;;;5074292;28;20234;-76
2022/03/15 11:38:52;;;;;;;15.90;7.70;;;11.10;99.90;;;;;;5074381;28;20558;-76
2022/03/15 11:41:22;;;;;;;19.73;7.83;;;10.90;99.90;;;;;;5074048;28;20177;-78
2022/03/15 11:44:00;;;;;;;19.63;8.73;;;10.90;99.90;;;;;;5074145;28;20188;-77
2022/03/15 11:46:46;;;;;;;17.27;7.77;;;11.00;99.90;;;;;;5074061;28;20161;-78
2022/03/15 11:49:33;;;;;;;16.10;7.87;;;11.20;99.90;;;;;;5073806;28;20678;-76
2022/03/15 11:52:10;;;;;;;15.80;7.73;;;11.20;99.90;;;;;;5074031;28;20234;-77
2022/03/15 11:55:22;;;;;;;18.83;7.50;;;11.20;99.90;;;;;;5073948;28;20176;-77
2022/03/15 11:57:51;;;;;;;17.33;7.27;;;11.20;99.90;;;;;;5064792;28;20181;-77
2022/03/15 12:00:42;;;;;;;18.10;7.37;;;11.30;99.90;;;;;;5073745;28;20233;-77
2022/03/15 12:03:15;;;;;;;13.40;6.70;;;11.20;99.90;;;;;;5073368;28;20175;-76
2022/03/15 12:05:51;;;;;;;14.53;7.27;;;11.20;99.90;;;;;;5073436;28;20175;-77
2022/03/15 12:08:23;;;;;;;14.13;6.30;;;11.30;99.90;;;;;;5073605;28;20221;-76
2022/03/15 12:10:56;;;;;;;13.53;5.80;;;11.40;99.90;;;;;;5073720;28;20168;-75
2022/03/15 12:13:41;;;;;;;12.07;5.60;;;11.30;99.90;;;;;;5073338;28;20187;-75
2022/03/15 12:16:23;;;;;;;13.57;6.20;;;11.20;99.90;;;;;;5073619;28;20172;-75
2022/03/15 12:19:00;;;;;;;13.40;5.83;;;11.30;99.90;;;;;;5073628;28;20596;-75
2022/03/15 12:21:27;;;;;;;18.73;6.10;;;11.50;99.90;;;;;;5073517;28;20175;-76
2022/03/15 12:23:54;;;;;;;15.37;6.10;;;11.50;99.90;;;;;;5073386;28;20546;-75
2022/03/15 12:26:26;;;;;;;16.83;6.90;;;11.60;99.90;;;;;;5073412;28;20184;-74
2022/03/15 12:28:56;;;;;;;14.87;6.10;;;11.80;99.90;;;;;;5073491;28;20208;-73
2022/03/15 12:31:40;;;;;;;11.77;6.17;;;11.70;99.90;;;;;;5073167;28;20636;-73
2022/03/15 12:34:09;;;;;;;14.67;6.50;;;11.80;99.90;;;;;;5073274;28;20186;-73
2022/03/15 12:36:58;;;;;;;10.87;6.23;;;11.90;99.90;;;;;;5073036;28;20168;-73
2022/03/15 12:39:27;;;;;;;12.70;5.83;;;11.80;99.90;;;;;;5072335;28;20244;-73